sensor_id;sensor_type;location;lat;lon;timestamp;P1;durP1;ratioP1;P2;durP2;ratioP2
51800;SDS011;37855;53.204;6.568;2024-03-06T00:01:34;15.20;;;7.70;;
51800;SDS011;37855;53.204;6.568;2024-03-06T00:04:03;14.90;;;8.60;;
51800;SDS011;37855;53.204;6.568;2024-03-06T00:06:32;12.30;;;7.50;;
51800;SDS011;37855;53.204;6.568;2024-03-06T00:08:58;15.07;;;7.90;;
51800;SDS011;37855;53.204;6.568;2024-03-06T00:11:24;17.15;;;7.75;;
51800;SDS011;37855;53.204;6.568;2024-03-06T00:13:50;12.73;;;8.03;;
51800;SDS011;37855;53.204;6.568;2024-03-06T00:16:16;15.50;;;7.80;;
51800;SDS011;37855;53.204;6.568;2024-03-06T00:18:42;15.48;;;7.82;;
51800;SDS011;37855;53.204;6.568;2024-03-06T00:21:07;15.63;;;8.10;;
51800;SDS011;37855;53.204;6.568;2024-03-06T00:23:34;13.93;;;8.27;;
51800;SDS011;37855;53.204;6.568;2024-03-06T00:26:00;15.57;;;8.13;;
51800;SDS011;37855;53.204;6.568;2024-03-06T00:28:27;13.23;;;7.70;;
51800;SDS011;37855;53.204;6.568;2024-03-06T00:30:53;13.80;;;7.90;;
51800;SDS011;37855;53.204;6.568;2024-03-06T00:33:18;12.45;;;7.80;;
51800;SDS011;37855;53.204;6.568;2024-03-06T00:35:44;17.63;;;8.43;;
51800;SDS011;37855;53.204;6.568;2024-03-06T00:38:10;14.27;;;8.40;;
51800;SDS011;37855;53.204;6.568;2024-03-06T00:40:35;16.80;;;7.80;;
51800;SDS011;37855;53.204;6.568;2024-03-06T00:43:01;13.57;;;7.87;;
51800;SDS011;37855;53.204;6.568;2024-03-06T00:45:27;14.93;;;8.03;;
51800;SDS011;37855;53.204;6.568;2024-03-06T00:47:53;14.70;;;7.88;;
51800;SDS011;37855;53.204;6.568;2024-03-06T00:50:18;14.00;;;7.70;;
51800;SDS011;37855;53.204;6.568;2024-03-06T00:52:47;14.18;;;7.68;;
51800;SDS011;37855;53.204;6.568;2024-03-06T00:55:16;13.45;;;7.93;;
51800;SDS011;37855;53.204;6.568;2024-03-06T00:57:42;13.23;;;7.80;;
51800;SDS011;37855;53.204;6.568;2024-03-06T01:00:07;16.10;;;7.27;;
51800;SDS011;37855;53.204;6.568;2024-03-06T01:02:36;13.98;;;7.30;;
51800;SDS011;37855;53.204;6.568;2024-03-06T01:05:05;13.35;;;7.97;;
51800;SDS011;37855;53.204;6.568;2024-03-06T01:07:32;12.45;;;7.05;;
51800;SDS011;37855;53.204;6.568;2024-03-06T01:09:58;18.15;;;8.20;;
51800;SDS011;37855;53.204;6.568;2024-03-06T01:12:24;14.03;;;7.77;;
51800;SDS011;37855;53.204;6.568;2024-03-06T01:14:50;14.15;;;8.15;;
51800;SDS011;37855;53.204;6.568;2024-03-06T01:17:16;15.57;;;7.53;;
51800;SDS011;37855;53.204;6.568;2024-03-06T01:19:41;14.83;;;7.47;;
51800;SDS011;37855;53.204;6.568;2024-03-06T01:22:10;13.70;;;7.60;;
51800;SDS011;37855;53.204;6.568;2024-03-06T01:24:36;16.23;;;9.18;;
51800;SDS011;37855;53.204;6.568;2024-03-06T01:27:02;16.33;;;7.37;;
51800;SDS011;37855;53.204;6.568;2024-03-06T01:29:31;14.15;;;8.13;;
51800;SDS011;37855;53.204;6.568;2024-03-06T01:31:57;15.27;;;7.90;;
51800;SDS011;37855;53.204;6.568;2024-03-06T01:34:23;14.00;;;7.88;;
51800;SDS011;37855;53.204;6.568;2024-03-06T01:36:49;17.58;;;8.18;;
51800;SDS011;37855;53.204;6.568;2024-03-06T01:39:15;14.20;;;8.20;;
51800;SDS011;37855;53.204;6.568;2024-03-06T01:41:48;13.20;;;7.55;;
51800;SDS011;37855;53.204;6.568;2024-03-06T01:44:15;16.08;;;8.65;;
51800;SDS011;37855;53.204;6.568;2024-03-06T01:46:45;14.63;;;7.73;;
51800;SDS011;37855;53.204;6.568;2024-03-06T01:49:15;15.55;;;7.95;;
51800;SDS011;37855;53.204;6.568;2024-03-06T01:51:41;14.40;;;7.28;;
51800;SDS011;37855;53.204;6.568;2024-03-06T01:54:20;16.73;;;8.02;;
51800;SDS011;37855;53.204;6.568;2024-03-06T01:56:46;15.15;;;8.15;;
51800;SDS011;37855;53.204;6.568;2024-03-06T01:59:15;17.27;;;8.37;;
51800;SDS011;37855;53.204;6.568;2024-03-06T02:01:42;12.38;;;7.85;;
51800;SDS011;37855;53.204;6.568;2024-03-06T02:04:08;12.18;;;7.45;;
51800;SDS011;37855;53.204;6.568;2024-03-06T02:06:39;14.18;;;7.90;;
51800;SDS011;37855;53.204;6.568;2024-03-06T02:09:06;14.25;;;7.88;;
51800;SDS011;37855;53.204;6.568;2024-03-06T02:11:32;15.53;;;8.33;;
51800;SDS011;37855;53.204;6.568;2024-03-06T02:13:58;16.40;;;8.02;;
51800;SDS011;37855;53.204;6.568;2024-03-06T02:16:24;13.98;;;8.30;;
51800;SDS011;37855;53.204;6.568;2024-03-06T02:18:55;14.50;;;7.90;;
51800;SDS011;37855;53.204;6.568;2024-03-06T02:21:24;15.85;;;8.15;;
51800;SDS011;37855;53.204;6.568;2024-03-06T02:23:51;12.87;;;7.90;;
51800;SDS011;37855;53.204;6.568;2024-03-06T02:26:20;14.05;;;8.27;;
51800;SDS011;37855;53.204;6.568;2024-03-06T02:28:50;14.52;;;7.88;;
51800;SDS011;37855;53.204;6.568;2024-03-06T02:31:17;15.85;;;8.30;;
51800;SDS011;37855;53.204;6.568;2024-03-06T02:33:44;14.15;;;7.93;;
51800;SDS011;37855;53.204;6.568;2024-03-06T02:36:12;13.27;;;7.60;;
51800;SDS011;37855;53.204;6.568;2024-03-06T02:38:38;16.27;;;7.68;;
51800;SDS011;37855;53.204;6.568;2024-03-06T02:41:03;19.17;;;8.68;;
51800;SDS011;37855;53.204;6.568;2024-03-06T02:43:31;13.73;;;7.73;;
51800;SDS011;37855;53.204;6.568;2024-03-06T02:46:00;15.88;;;8.82;;
51800;SDS011;37855;53.204;6.568;2024-03-06T02:48:26;14.60;;;8.05;;
51800;SDS011;37855;53.204;6.568;2024-03-06T02:50:52;15.27;;;8.60;;
51800;SDS011;37855;53.204;6.568;2024-03-06T02:53:17;14.83;;;8.63;;
51800;SDS011;37855;53.204;6.568;2024-03-06T02:55:43;16.77;;;8.37;;
51800;SDS011;37855;53.204;6.568;2024-03-06T02:58:09;14.48;;;8.32;;
51800;SDS011;37855;53.204;6.568;2024-03-06T03:00:35;15.53;;;8.50;;
51800;SDS011;37855;53.204;6.568;2024-03-06T03:03:00;14.77;;;8.10;;
51800;SDS011;37855;53.204;6.568;2024-03-06T03:05:26;17.23;;;9.50;;
51800;SDS011;37855;53.204;6.568;2024-03-06T03:07:52;14.93;;;7.93;;
51800;SDS011;37855;53.204;6.568;2024-03-06T03:10:18;14.85;;;8.73;;
51800;SDS011;37855;53.204;6.568;2024-03-06T03:12:43;13.27;;;8.10;;
51800;SDS011;37855;53.204;6.568;2024-03-06T03:15:10;13.48;;;9.02;;
51800;SDS011;37855;53.204;6.568;2024-03-06T03:17:35;16.40;;;8.87;;
51800;SDS011;37855;53.204;6.568;2024-03-06T03:20:04;15.20;;;8.43;;
51800;SDS011;37855;53.204;6.568;2024-03-06T03:22:43;16.43;;;8.97;;
51800;SDS011;37855;53.204;6.568;2024-03-06T03:25:09;17.17;;;8.95;;
51800;SDS011;37855;53.204;6.568;2024-03-06T03:27:40;15.85;;;8.52;;
51800;SDS011;37855;53.204;6.568;2024-03-06T03:30:12;13.73;;;8.65;;
51800;SDS011;37855;53.204;6.568;2024-03-06T03:32:38;13.57;;;8.27;;
51800;SDS011;37855;53.204;6.568;2024-03-06T03:35:07;14.53;;;8.20;;
51800;SDS011;37855;53.204;6.568;2024-03-06T03:37:33;14.70;;;8.80;;
51800;SDS011;37855;53.204;6.568;2024-03-06T03:39:59;15.17;;;9.03;;
51800;SDS011;37855;53.204;6.568;2024-03-06T03:42:24;17.63;;;9.30;;
51800;SDS011;37855;53.204;6.568;2024-03-06T03:44:50;15.35;;;8.57;;
51800;SDS011;37855;53.204;6.568;2024-03-06T03:47:16;16.10;;;9.57;;
51800;SDS011;37855;53.204;6.568;2024-03-06T03:49:41;13.85;;;8.98;;
51800;SDS011;37855;53.204;6.568;2024-03-06T03:52:07;15.53;;;8.40;;
51800;SDS011;37855;53.204;6.568;2024-03-06T03:54:33;14.65;;;8.65;;
51800;SDS011;37855;53.204;6.568;2024-03-06T03:56:59;16.40;;;9.00;;
51800;SDS011;37855;53.204;6.568;2024-03-06T03:59:25;14.37;;;8.23;;
51800;SDS011;37855;53.204;6.568;2024-03-06T04:01:51;16.67;;;9.15;;
51800;SDS011;37855;53.204;6.568;2024-03-06T04:04:16;16.33;;;9.13;;
51800;SDS011;37855;53.204;6.568;2024-03-06T04:06:42;15.95;;;8.55;;
51800;SDS011;37855;53.204;6.568;2024-03-06T04:09:08;16.93;;;9.00;;
51800;SDS011;37855;53.204;6.568;2024-03-06T04:11:37;17.60;;;10.10;;
51800;SDS011;37855;53.204;6.568;2024-03-06T04:14:03;16.40;;;8.75;;
51800;SDS011;37855;53.204;6.568;2024-03-06T04:16:31;14.93;;;8.77;;
51800;SDS011;37855;53.204;6.568;2024-03-06T04:18:57;14.57;;;9.13;;
51800;SDS011;37855;53.204;6.568;2024-03-06T04:21:23;19.27;;;9.73;;
51800;SDS011;37855;53.204;6.568;2024-03-06T04:23:48;17.00;;;9.60;;
51800;SDS011;37855;53.204;6.568;2024-03-06T04:26:14;17.27;;;10.20;;
51800;SDS011;37855;53.204;6.568;2024-03-06T04:28:40;16.23;;;9.20;;
51800;SDS011;37855;53.204;6.568;2024-03-06T04:31:05;16.37;;;9.63;;
51800;SDS011;37855;53.204;6.568;2024-03-06T04:33:33;17.43;;;9.23;;
51800;SDS011;37855;53.204;6.568;2024-03-06T04:36:00;16.58;;;9.80;;
51800;SDS011;37855;53.204;6.568;2024-03-06T04:38:27;16.73;;;9.33;;
51800;SDS011;37855;53.204;6.568;2024-03-06T04:40:54;20.73;;;10.65;;
51800;SDS011;37855;53.204;6.568;2024-03-06T04:43:19;15.15;;;9.05;;
51800;SDS011;37855;53.204;6.568;2024-03-06T04:45:45;18.17;;;9.27;;
51800;SDS011;37855;53.204;6.568;2024-03-06T04:48:11;15.88;;;10.13;;
51800;SDS011;37855;53.204;6.568;2024-03-06T04:50:40;17.40;;;9.73;;
51800;SDS011;37855;53.204;6.568;2024-03-06T04:53:06;18.63;;;10.70;;
51800;SDS011;37855;53.204;6.568;2024-03-06T04:55:31;20.48;;;9.82;;
51800;SDS011;37855;53.204;6.568;2024-03-06T04:57:57;17.27;;;10.30;;
51800;SDS011;37855;53.204;6.568;2024-03-06T05:00:23;16.27;;;9.85;;
51800;SDS011;37855;53.204;6.568;2024-03-06T05:02:49;16.80;;;9.97;;
51800;SDS011;37855;53.204;6.568;2024-03-06T05:05:14;18.88;;;10.98;;
51800;SDS011;37855;53.204;6.568;2024-03-06T05:07:40;18.43;;;10.23;;
51800;SDS011;37855;53.204;6.568;2024-03-06T05:10:06;18.98;;;10.25;;
51800;SDS011;37855;53.204;6.568;2024-03-06T05:12:34;18.23;;;10.50;;
51800;SDS011;37855;53.204;6.568;2024-03-06T05:15:01;17.80;;;10.43;;
51800;SDS011;37855;53.204;6.568;2024-03-06T05:17:28;19.45;;;10.25;;
51800;SDS011;37855;53.204;6.568;2024-03-06T05:19:57;19.30;;;9.98;;
51800;SDS011;37855;53.204;6.568;2024-03-06T05:22:22;17.23;;;10.60;;
51800;SDS011;37855;53.204;6.568;2024-03-06T05:24:52;17.67;;;10.07;;
51800;SDS011;37855;53.204;6.568;2024-03-06T05:27:20;19.08;;;10.20;;
51800;SDS011;37855;53.204;6.568;2024-03-06T05:29:46;17.08;;;10.85;;
51800;SDS011;37855;53.204;6.568;2024-03-06T05:32:11;17.87;;;9.23;;
51800;SDS011;37855;53.204;6.568;2024-03-06T05:34:37;22.15;;;10.93;;
51800;SDS011;37855;53.204;6.568;2024-03-06T05:37:03;20.00;;;11.07;;
51800;SDS011;37855;53.204;6.568;2024-03-06T05:39:29;17.92;;;10.00;;
51800;SDS011;37855;53.204;6.568;2024-03-06T05:41:55;16.63;;;9.98;;
51800;SDS011;37855;53.204;6.568;2024-03-06T05:44:25;19.73;;;10.30;;
51800;SDS011;37855;53.204;6.568;2024-03-06T05:46:51;20.17;;;11.63;;
51800;SDS011;37855;53.204;6.568;2024-03-06T05:49:17;21.05;;;9.90;;
51800;SDS011;37855;53.204;6.568;2024-03-06T05:51:42;17.47;;;10.13;;
51800;SDS011;37855;53.204;6.568;2024-03-06T05:54:08;19.52;;;10.68;;
51800;SDS011;37855;53.204;6.568;2024-03-06T05:56:37;19.63;;;10.70;;
51800;SDS011;37855;53.204;6.568;2024-03-06T05:59:05;17.63;;;10.55;;
51800;SDS011;37855;53.204;6.568;2024-03-06T06:01:33;19.67;;;11.23;;
51800;SDS011;37855;53.204;6.568;2024-03-06T06:04:01;17.40;;;10.18;;
51800;SDS011;37855;53.204;6.568;2024-03-06T06:06:27;19.33;;;10.60;;
51800;SDS011;37855;53.204;6.568;2024-03-06T06:08:53;18.27;;;10.10;;
51800;SDS011;37855;53.204;6.568;2024-03-06T06:11:19;22.77;;;9.73;;
51800;SDS011;37855;53.204;6.568;2024-03-06T06:13:47;17.00;;;10.07;;
51800;SDS011;37855;53.204;6.568;2024-03-06T06:16:13;18.00;;;10.07;;
51800;SDS011;37855;53.204;6.568;2024-03-06T06:18:41;19.57;;;10.40;;
51800;SDS011;37855;53.204;6.568;2024-03-06T06:21:07;19.40;;;10.77;;
51800;SDS011;37855;53.204;6.568;2024-03-06T06:23:34;19.23;;;10.93;;
51800;SDS011;37855;53.204;6.568;2024-03-06T06:26:00;18.45;;;11.00;;
51800;SDS011;37855;53.204;6.568;2024-03-06T06:28:25;21.23;;;10.93;;
51800;SDS011;37855;53.204;6.568;2024-03-06T06:30:51;19.02;;;11.07;;
51800;SDS011;37855;53.204;6.568;2024-03-06T06:33:18;21.23;;;10.83;;
51800;SDS011;37855;53.204;6.568;2024-03-06T06:35:44;18.13;;;9.85;;
51800;SDS011;37855;53.204;6.568;2024-03-06T06:38:10;18.15;;;11.43;;
51800;SDS011;37855;53.204;6.568;2024-03-06T06:40:35;18.83;;;11.10;;
51800;SDS011;37855;53.204;6.568;2024-03-06T06:43:01;18.75;;;10.32;;
51800;SDS011;37855;53.204;6.568;2024-03-06T06:45:27;18.47;;;9.93;;
51800;SDS011;37855;53.204;6.568;2024-03-06T06:47:53;17.42;;;10.77;;
51800;SDS011;37855;53.204;6.568;2024-03-06T06:50:18;18.43;;;10.17;;
51800;SDS011;37855;53.204;6.568;2024-03-06T06:52:47;21.35;;;10.30;;
51800;SDS011;37855;53.204;6.568;2024-03-06T06:55:13;16.83;;;10.38;;
51800;SDS011;37855;53.204;6.568;2024-03-06T06:57:39;17.20;;;10.37;;
51800;SDS011;37855;53.204;6.568;2024-03-06T07:00:14;19.75;;;10.43;;
51800;SDS011;37855;53.204;6.568;2024-03-06T07:02:43;18.20;;;11.27;;
51800;SDS011;37855;53.204;6.568;2024-03-06T07:05:10;18.38;;;11.13;;
51800;SDS011;37855;53.204;6.568;2024-03-06T07:07:36;21.13;;;11.30;;
51800;SDS011;37855;53.204;6.568;2024-03-06T07:10:03;18.40;;;10.90;;
51800;SDS011;37855;53.204;6.568;2024-03-06T07:12:32;18.20;;;10.45;;
51800;SDS011;37855;53.204;6.568;2024-03-06T07:14:58;17.65;;;10.82;;
51800;SDS011;37855;53.204;6.568;2024-03-06T07:17:28;20.77;;;10.47;;
51800;SDS011;37855;53.204;6.568;2024-03-06T07:19:53;18.65;;;10.45;;
51800;SDS011;37855;53.204;6.568;2024-03-06T07:22:19;19.88;;;11.18;;
51800;SDS011;37855;53.204;6.568;2024-03-06T07:24:44;18.57;;;10.90;;
51800;SDS011;37855;53.204;6.568;2024-03-06T07:27:10;17.17;;;10.47;;
51800;SDS011;37855;53.204;6.568;2024-03-06T07:29:36;18.55;;;10.40;;
51800;SDS011;37855;53.204;6.568;2024-03-06T07:32:08;16.38;;;9.98;;
51800;SDS011;37855;53.204;6.568;2024-03-06T07:34:34;18.75;;;10.77;;
51800;SDS011;37855;53.204;6.568;2024-03-06T07:37:00;18.50;;;11.37;;
51800;SDS011;37855;53.204;6.568;2024-03-06T07:39:26;17.58;;;10.95;;
51800;SDS011;37855;53.204;6.568;2024-03-06T07:41:52;20.27;;;10.87;;
51800;SDS011;37855;53.204;6.568;2024-03-06T07:44:18;18.27;;;11.02;;
51800;SDS011;37855;53.204;6.568;2024-03-06T07:46:45;19.15;;;10.30;;
51800;SDS011;37855;53.204;6.568;2024-03-06T07:49:10;19.83;;;10.97;;
51800;SDS011;37855;53.204;6.568;2024-03-06T07:51:36;19.90;;;11.05;;
51800;SDS011;37855;53.204;6.568;2024-03-06T07:54:02;19.67;;;11.57;;
51800;SDS011;37855;53.204;6.568;2024-03-06T07:56:30;17.40;;;11.02;;
51800;SDS011;37855;53.204;6.568;2024-03-06T07:58:56;20.60;;;11.37;;
51800;SDS011;37855;53.204;6.568;2024-03-06T08:01:22;20.13;;;12.05;;
51800;SDS011;37855;53.204;6.568;2024-03-06T08:03:48;19.95;;;11.20;;
51800;SDS011;37855;53.204;6.568;2024-03-06T08:06:14;20.30;;;11.38;;
51800;SDS011;37855;53.204;6.568;2024-03-06T08:08:42;19.60;;;11.10;;
51800;SDS011;37855;53.204;6.568;2024-03-06T08:11:12;23.00;;;11.15;;
51800;SDS011;37855;53.204;6.568;2024-03-06T08:13:38;19.23;;;10.57;;
51800;SDS011;37855;53.204;6.568;2024-03-06T08:16:05;22.00;;;11.32;;
51800;SDS011;37855;53.204;6.568;2024-03-06T08:18:31;18.77;;;10.63;;
51800;SDS011;37855;53.204;6.568;2024-03-06T08:20:58;17.90;;;10.20;;
51800;SDS011;37855;53.204;6.568;2024-03-06T08:23:23;18.65;;;10.27;;
51800;SDS011;37855;53.204;6.568;2024-03-06T08:25:50;22.25;;;12.10;;
51800;SDS011;37855;53.204;6.568;2024-03-06T08:28:17;20.90;;;11.25;;
51800;SDS011;37855;53.204;6.568;2024-03-06T08:30:45;20.83;;;11.40;;
51800;SDS011;37855;53.204;6.568;2024-03-06T08:33:11;20.23;;;11.07;;
51800;SDS011;37855;53.204;6.568;2024-03-06T08:35:39;22.77;;;11.82;;
51800;SDS011;37855;53.204;6.568;2024-03-06T08:38:08;22.58;;;11.73;;
51800;SDS011;37855;53.204;6.568;2024-03-06T08:40:34;20.58;;;12.38;;
51800;SDS011;37855;53.204;6.568;2024-03-06T08:42:59;20.30;;;11.13;;
51800;SDS011;37855;53.204;6.568;2024-03-06T08:45:27;19.85;;;11.38;;
51800;SDS011;37855;53.204;6.568;2024-03-06T08:47:52;19.35;;;11.25;;
51800;SDS011;37855;53.204;6.568;2024-03-06T08:50:19;20.85;;;11.60;;
51800;SDS011;37855;53.204;6.568;2024-03-06T08:52:45;21.80;;;12.10;;
51800;SDS011;37855;53.204;6.568;2024-03-06T08:55:11;24.00;;;11.60;;
51800;SDS011;37855;53.204;6.568;2024-03-06T08:57:38;23.50;;;12.00;;
51800;SDS011;37855;53.204;6.568;2024-03-06T09:00:04;20.67;;;12.10;;
51800;SDS011;37855;53.204;6.568;2024-03-06T09:02:35;17.75;;;10.93;;
51800;SDS011;37855;53.204;6.568;2024-03-06T09:05:02;18.87;;;11.23;;
51800;SDS011;37855;53.204;6.568;2024-03-06T09:07:32;22.38;;;12.18;;
51800;SDS011;37855;53.204;6.568;2024-03-06T09:10:03;18.38;;;11.27;;
51800;SDS011;37855;53.204;6.568;2024-03-06T09:12:30;23.02;;;11.32;;
51800;SDS011;37855;53.204;6.568;2024-03-06T09:15:00;24.40;;;11.57;;
51800;SDS011;37855;53.204;6.568;2024-03-06T09:17:29;22.75;;;11.88;;
51800;SDS011;37855;53.204;6.568;2024-03-06T09:19:55;19.10;;;11.90;;
51800;SDS011;37855;53.204;6.568;2024-03-06T09:22:21;23.58;;;12.10;;
51800;SDS011;37855;53.204;6.568;2024-03-06T09:24:47;20.50;;;10.97;;
51800;SDS011;37855;53.204;6.568;2024-03-06T09:27:13;21.52;;;11.60;;
51800;SDS011;37855;53.204;6.568;2024-03-06T09:29:40;19.88;;;12.27;;
51800;SDS011;37855;53.204;6.568;2024-03-06T09:32:07;22.73;;;12.17;;
51800;SDS011;37855;53.204;6.568;2024-03-06T09:34:32;20.13;;;11.48;;
51800;SDS011;37855;53.204;6.568;2024-03-06T09:36:58;21.43;;;12.27;;
51800;SDS011;37855;53.204;6.568;2024-03-06T09:39:24;21.60;;;11.85;;
51800;SDS011;37855;53.204;6.568;2024-03-06T09:41:50;22.30;;;12.00;;
51800;SDS011;37855;53.204;6.568;2024-03-06T09:44:18;20.50;;;11.73;;
51800;SDS011;37855;53.204;6.568;2024-03-06T09:46:46;20.40;;;11.93;;
51800;SDS011;37855;53.204;6.568;2024-03-06T09:49:14;22.13;;;12.15;;
51800;SDS011;37855;53.204;6.568;2024-03-06T09:51:43;23.00;;;12.60;;
51800;SDS011;37855;53.204;6.568;2024-03-06T09:54:14;25.07;;;12.20;;
51800;SDS011;37855;53.204;6.568;2024-03-06T09:56:44;26.65;;;12.18;;
51800;SDS011;37855;53.204;6.568;2024-03-06T09:59:10;21.90;;;12.30;;
51800;SDS011;37855;53.204;6.568;2024-03-06T10:01:49;22.13;;;13.15;;
51800;SDS011;37855;53.204;6.568;2024-03-06T10:04:21;21.67;;;12.98;;
51800;SDS011;37855;53.204;6.568;2024-03-06T10:06:55;24.67;;;12.73;;
51800;SDS011;37855;53.204;6.568;2024-03-06T10:09:22;23.40;;;13.13;;
51800;SDS011;37855;53.204;6.568;2024-03-06T10:11:48;28.17;;;13.43;;
51800;SDS011;37855;53.204;6.568;2024-03-06T10:14:17;26.45;;;13.18;;
51800;SDS011;37855;53.204;6.568;2024-03-06T10:17:02;24.70;;;13.33;;
51800;SDS011;37855;53.204;6.568;2024-03-06T10:19:28;27.33;;;13.25;;
51800;SDS011;37855;53.204;6.568;2024-03-06T10:21:58;24.65;;;12.32;;
51800;SDS011;37855;53.204;6.568;2024-03-06T10:24:27;22.52;;;12.73;;
51800;SDS011;37855;53.204;6.568;2024-03-06T10:26:57;23.23;;;13.30;;
51800;SDS011;37855;53.204;6.568;2024-03-06T10:29:29;22.27;;;11.63;;
51800;SDS011;37855;53.204;6.568;2024-03-06T10:31:55;23.08;;;12.95;;
51800;SDS011;37855;53.204;6.568;2024-03-06T10:34:29;25.25;;;13.25;;
51800;SDS011;37855;53.204;6.568;2024-03-06T10:36:56;25.80;;;12.93;;
51800;SDS011;37855;53.204;6.568;2024-03-06T10:39:23;23.57;;;12.90;;
51800;SDS011;37855;53.204;6.568;2024-03-06T10:41:56;25.33;;;13.27;;
51800;SDS011;37855;53.204;6.568;2024-03-06T10:44:23;23.80;;;12.80;;
51800;SDS011;37855;53.204;6.568;2024-03-06T10:49:51;23.40;;;12.82;;
51800;SDS011;37855;53.204;6.568;2024-03-06T10:56:21;20.70;;;11.98;;
51800;SDS011;37855;53.204;6.568;2024-03-06T10:59:03;24.40;;;13.18;;
51800;SDS011;37855;53.204;6.568;2024-03-06T11:04:27;24.65;;;13.40;;
51800;SDS011;37855;53.204;6.568;2024-03-06T11:07:01;28.50;;;13.80;;
51800;SDS011;37855;53.204;6.568;2024-03-06T11:09:37;24.15;;;14.25;;
51800;SDS011;37855;53.204;6.568;2024-03-06T11:15:58;26.10;;;13.00;;
51800;SDS011;37855;53.204;6.568;2024-03-06T11:21:41;25.60;;;13.17;;
51800;SDS011;37855;53.204;6.568;2024-03-06T11:27:03;22.60;;;12.80;;
51800;SDS011;37855;53.204;6.568;2024-03-06T11:33:01;44.58;;;15.85;;
51800;SDS011;37855;53.204;6.568;2024-03-06T11:35:28;28.80;;;13.83;;
51800;SDS011;37855;53.204;6.568;2024-03-06T11:37:54;24.77;;;13.98;;
51800;SDS011;37855;53.204;6.568;2024-03-06T11:40:23;26.40;;;15.15;;
51800;SDS011;37855;53.204;6.568;2024-03-06T11:42:52;27.58;;;13.40;;
51800;SDS011;37855;53.204;6.568;2024-03-06T11:45:18;25.33;;;14.23;;
51800;SDS011;37855;53.204;6.568;2024-03-06T11:47:59;28.52;;;14.23;;
51800;SDS011;37855;53.204;6.568;2024-03-06T11:50:26;25.98;;;14.68;;
51800;SDS011;37855;53.204;6.568;2024-03-06T11:52:53;26.60;;;13.63;;
51800;SDS011;37855;53.204;6.568;2024-03-06T11:55:22;26.67;;;13.90;;
51800;SDS011;37855;53.204;6.568;2024-03-06T11:57:50;28.42;;;14.23;;
51800;SDS011;37855;53.204;6.568;2024-03-06T12:00:16;27.27;;;14.20;;
51800;SDS011;37855;53.204;6.568;2024-03-06T12:02:43;26.98;;;14.95;;
51800;SDS011;37855;53.204;6.568;2024-03-06T12:05:09;27.90;;;15.27;;
51800;SDS011;37855;53.204;6.568;2024-03-06T12:07:46;29.27;;;15.52;;
51800;SDS011;37855;53.204;6.568;2024-03-06T12:10:13;31.30;;;15.30;;
51800;SDS011;37855;53.204;6.568;2024-03-06T12:12:42;28.38;;;15.02;;
51800;SDS011;37855;53.204;6.568;2024-03-06T12:15:09;30.42;;;14.95;;
51800;SDS011;37855;53.204;6.568;2024-03-06T12:17:49;25.13;;;14.93;;
51800;SDS011;37855;53.204;6.568;2024-03-06T12:20:17;28.33;;;15.25;;
51800;SDS011;37855;53.204;6.568;2024-03-06T12:22:50;34.22;;;15.32;;
51800;SDS011;37855;53.204;6.568;2024-03-06T12:25:20;31.02;;;15.80;;
51800;SDS011;37855;53.204;6.568;2024-03-06T12:27:53;28.30;;;15.68;;
51800;SDS011;37855;53.204;6.568;2024-03-06T12:30:20;31.07;;;15.30;;
51800;SDS011;37855;53.204;6.568;2024-03-06T12:32:56;30.13;;;15.75;;
51800;SDS011;37855;53.204;6.568;2024-03-06T12:35:26;30.52;;;16.40;;
51800;SDS011;37855;53.204;6.568;2024-03-06T12:37:52;30.83;;;16.58;;
51800;SDS011;37855;53.204;6.568;2024-03-06T12:40:18;30.30;;;17.03;;
51800;SDS011;37855;53.204;6.568;2024-03-06T12:42:44;29.98;;;17.10;;
51800;SDS011;37855;53.204;6.568;2024-03-06T12:45:14;28.40;;;16.08;;
51800;SDS011;37855;53.204;6.568;2024-03-06T12:47:44;32.85;;;16.17;;
51800;SDS011;37855;53.204;6.568;2024-03-06T12:50:12;31.45;;;14.95;;
51800;SDS011;37855;53.204;6.568;2024-03-06T12:52:38;28.80;;;16.10;;
51800;SDS011;37855;53.204;6.568;2024-03-06T12:55:04;30.73;;;15.95;;
51800;SDS011;37855;53.204;6.568;2024-03-06T12:57:33;27.35;;;15.48;;
51800;SDS011;37855;53.204;6.568;2024-03-06T12:59:59;29.93;;;17.13;;
51800;SDS011;37855;53.204;6.568;2024-03-06T13:02:25;36.75;;;16.90;;
51800;SDS011;37855;53.204;6.568;2024-03-06T13:04:54;31.83;;;17.23;;
51800;SDS011;37855;53.204;6.568;2024-03-06T13:07:19;31.73;;;16.93;;
51800;SDS011;37855;53.204;6.568;2024-03-06T13:09:45;30.92;;;16.15;;
51800;SDS011;37855;53.204;6.568;2024-03-06T13:12:11;31.43;;;17.30;;
51800;SDS011;37855;53.204;6.568;2024-03-06T13:14:39;29.75;;;16.98;;
51800;SDS011;37855;53.204;6.568;2024-03-06T13:17:05;27.83;;;16.03;;
51800;SDS011;37855;53.204;6.568;2024-03-06T13:19:34;26.73;;;15.60;;
51800;SDS011;37855;53.204;6.568;2024-03-06T13:22:02;32.50;;;16.58;;
51800;SDS011;37855;53.204;6.568;2024-03-06T13:24:28;30.73;;;17.70;;
51800;SDS011;37855;53.204;6.568;2024-03-06T13:26:54;31.87;;;17.17;;
51800;SDS011;37855;53.204;6.568;2024-03-06T13:29:20;30.38;;;17.98;;
51800;SDS011;37855;53.204;6.568;2024-03-06T13:31:49;30.88;;;16.73;;
51800;SDS011;37855;53.204;6.568;2024-03-06T13:34:17;34.97;;;16.13;;
51800;SDS011;37855;53.204;6.568;2024-03-06T13:36:51;29.57;;;16.60;;
51800;SDS011;37855;53.204;6.568;2024-03-06T13:39:18;28.95;;;17.20;;
51800;SDS011;37855;53.204;6.568;2024-03-06T13:41:44;27.33;;;16.35;;
51800;SDS011;37855;53.204;6.568;2024-03-06T13:44:10;30.63;;;16.57;;
51800;SDS011;37855;53.204;6.568;2024-03-06T13:46:35;29.55;;;17.33;;
51800;SDS011;37855;53.204;6.568;2024-03-06T13:49:01;28.60;;;17.27;;
51800;SDS011;37855;53.204;6.568;2024-03-06T13:51:29;31.00;;;16.83;;
51800;SDS011;37855;53.204;6.568;2024-03-06T13:53:55;31.57;;;16.70;;
51800;SDS011;37855;53.204;6.568;2024-03-06T13:56:21;28.75;;;15.45;;
51800;SDS011;37855;53.204;6.568;2024-03-06T13:58:47;30.02;;;16.30;;
51800;SDS011;37855;53.204;6.568;2024-03-06T14:01:13;29.00;;;16.50;;
51800;SDS011;37855;53.204;6.568;2024-03-06T14:03:38;27.77;;;15.10;;
51800;SDS011;37855;53.204;6.568;2024-03-06T14:06:04;29.67;;;16.13;;
51800;SDS011;37855;53.204;6.568;2024-03-06T14:11:07;30.70;;;16.38;;
51800;SDS011;37855;53.204;6.568;2024-03-06T14:13:33;28.37;;;15.60;;
51800;SDS011;37855;53.204;6.568;2024-03-06T14:15:59;32.67;;;16.10;;
51800;SDS011;37855;53.204;6.568;2024-03-06T14:18:25;26.88;;;15.65;;
51800;SDS011;37855;53.204;6.568;2024-03-06T14:20:51;28.40;;;16.38;;
51800;SDS011;37855;53.204;6.568;2024-03-06T14:23:16;28.20;;;15.90;;
51800;SDS011;37855;53.204;6.568;2024-03-06T14:25:42;27.47;;;15.40;;
51800;SDS011;37855;53.204;6.568;2024-03-06T14:28:08;25.95;;;15.30;;
51800;SDS011;37855;53.204;6.568;2024-03-06T14:30:34;26.25;;;15.82;;
51800;SDS011;37855;53.204;6.568;2024-03-06T14:33:00;24.63;;;15.63;;
51800;SDS011;37855;53.204;6.568;2024-03-06T14:35:26;28.67;;;16.45;;
51800;SDS011;37855;53.204;6.568;2024-03-06T14:37:52;29.23;;;15.10;;
51800;SDS011;37855;53.204;6.568;2024-03-06T14:40:17;28.03;;;15.27;;
51800;SDS011;37855;53.204;6.568;2024-03-06T14:45:12;26.85;;;16.02;;
51800;SDS011;37855;53.204;6.568;2024-03-06T14:47:42;27.02;;;15.88;;
51800;SDS011;37855;53.204;6.568;2024-03-06T14:50:35;24.35;;;15.35;;
51800;SDS011;37855;53.204;6.568;2024-03-06T14:53:01;27.40;;;15.67;;
51800;SDS011;37855;53.204;6.568;2024-03-06T14:55:27;25.13;;;15.87;;